Delta Virtual Airport Information Service

Southwest Florida International Airport

ICAO: KRSW Country: United States
Latitude: 26.5362 Longitude: -81.7551
Latest Arrival : DAL1208 (1A) (KMSP-KRSW) Latest Departure : DAL1637 (2B) (KRSW-KBOS)


WX CaptureLIVE
Data provided by noaa.gov | Fetched at 01:53:25

METAR : KRSW 270742Z AUTO 13003KT 2SM BR OVC003 19/18 A3003 RMK AO2 T01890183

TAF : KRSW 270553Z 2706/2806 00000KT 3SM BR SCT008 BKN015 TEMPO 2706/2710 1/2SM FG SCT004 BKN008 FM271500 20009KT P6SM FEW008 BKN015 FM271700 23010KT P6SM SCT025 FM280200 22003KT P6SM SCT015 BKN040


Runway Data for KRSW
Data provided by openaviationdata.com

Runway ID Mag Var Hdg Length Elevation Surface ILS Freq ILS Id ILS Slope
6 -3 57° 12007 ft 30 ft Asphalt 111.5 IRSW 3
24 -3 237° 12007 ft 30 ft Asphalt -- -- --

Southwest Florida International Airport, United States
Use only for reference purposes



Not for navigational purposes.